createdAt,value
2017-12-14T00:00:14.575Z,99375.14
2017-12-14T00:02:41.156Z,99379.61
2017-12-14T00:05:07.596Z,99382.47
2017-12-14T00:07:33.985Z,99376.61
2017-12-14T00:10:00.380Z,99366.19
2017-12-14T00:12:26.827Z,99360.11
2017-12-14T00:14:53.239Z,99360.97
2017-12-14T00:17:19.663Z,99357.92
2017-12-14T00:19:46.139Z,99364.93
2017-12-14T00:22:12.616Z,99366.91
2017-12-14T00:24:38.901Z,99370.66
2017-12-14T00:27:05.301Z,99369.08
2017-12-14T00:29:31.627Z,99371.24
2017-12-14T00:31:57.985Z,99371.67
2017-12-14T00:34:24.418Z,99381.83
2017-12-14T00:36:50.827Z,99382.02
2017-12-14T00:39:17.182Z,99383.27
2017-12-14T00:41:43.718Z,99378.67
2017-12-14T00:44:10.258Z,99383.77
2017-12-14T00:46:36.716Z,99392.10
2017-12-14T00:49:03.164Z,99381.14
2017-12-14T00:51:29.527Z,99373.73
2017-12-14T00:53:55.987Z,99370.55
2017-12-14T00:56:22.566Z,99372.17
2017-12-14T00:58:49.059Z,99360.00
2017-12-14T01:01:15.427Z,99352.55
2017-12-14T01:03:41.872Z,99355.52
2017-12-14T01:06:08.461Z,99338.00
2017-12-14T01:08:34.920Z,99339.90
2017-12-14T01:11:01.429Z,99358.03
2017-12-14T01:13:27.868Z,99356.38
2017-12-14T01:15:54.290Z,99350.16
2017-12-14T01:18:20.966Z,99338.02
2017-12-14T01:20:47.406Z,99334.22
2017-12-14T01:23:13.885Z,99335.88
2017-12-14T01:25:40.520Z,99325.13
2017-12-14T01:28:07.036Z,99311.03
2017-12-14T01:30:33.513Z,99322.06
2017-12-14T01:33:00.317Z,99310.92
2017-12-14T01:35:26.772Z,99308.14
2017-12-14T01:37:53.233Z,99308.20
2017-12-14T01:40:19.845Z,99296.74
2017-12-14T01:42:46.278Z,99307.66
2017-12-14T01:45:12.802Z,99291.92
2017-12-14T01:47:39.362Z,99301.93
2017-12-14T01:50:05.912Z,99292.24
2017-12-14T01:52:32.421Z,99310.35
2017-12-14T01:54:58.996Z,99308.14
2017-12-14T01:57:25.458Z,99297.63
2017-12-14T01:59:52.073Z,99304.17
2017-12-14T02:02:18.665Z,99288.38
2017-12-14T02:04:45.196Z,99304.33
2017-12-14T02:07:11.658Z,99295.38
2017-12-14T02:09:38.369Z,99305.17
2017-12-14T02:12:04.822Z,99299.54
2017-12-14T02:14:31.346Z,99302.27
2017-12-14T02:16:57.848Z,99305.34
2017-12-14T02:19:24.357Z,99316.34
2017-12-14T02:21:50.793Z,99311.48
2017-12-14T02:24:17.502Z,99311.94
2017-12-14T02:26:44.035Z,99304.80
2017-12-14T02:29:10.469Z,99302.63
2017-12-14T02:31:37.014Z,99301.70
2017-12-14T02:34:03.437Z,99296.74
2017-12-14T02:36:29.912Z,99292.89
2017-12-14T02:38:56.438Z,99278.42
2017-12-14T02:41:22.914Z,99288.30
2017-12-14T02:43:49.375Z,99291.28
2017-12-14T02:46:16.014Z,99286.92
2017-12-14T02:48:42.529Z,99290.91
2017-12-14T02:51:09.062Z,99295.05
2017-12-14T02:53:35.574Z,99298.17
2017-12-14T02:56:02.007Z,99301.42
2017-12-14T02:58:28.485Z,99303.70
2017-12-14T03:00:55.001Z,99293.78
2017-12-14T03:03:21.446Z,99295.98
2017-12-14T03:05:48.041Z,99293.73
2017-12-14T03:08:14.691Z,99294.07
2017-12-14T03:10:41.131Z,99289.85
2017-12-14T03:13:07.573Z,99283.92
2017-12-14T03:15:34.190Z,99281.84
2017-12-14T03:18:00.725Z,99295.41
2017-12-14T03:20:27.161Z,99281.41
2017-12-14T03:22:53.685Z,99312.45
2017-12-14T03:25:20.109Z,99316.42
2017-12-14T03:27:46.551Z,99317.32
2017-12-14T03:30:13.707Z,99330.97
2017-12-14T03:32:40.138Z,99334.68
2017-12-14T03:35:06.654Z,99334.66
2017-12-14T03:37:33.206Z,99327.59
2017-12-14T03:39:59.674Z,99326.92
2017-12-14T03:42:26.189Z,99336.70
2017-12-14T03:44:52.701Z,99335.17
2017-12-14T03:47:19.225Z,99337.30
2017-12-14T03:49:45.793Z,99350.59
2017-12-14T03:52:12.462Z,99352.14
2017-12-14T03:54:38.950Z,99351.05
2017-12-14T03:57:12.549Z,99357.06
2017-12-14T03:59:39.070Z,99358.11
2017-12-14T04:02:05.521Z,99361.66
2017-12-14T04:04:32.049Z,99363.38
2017-12-14T04:06:58.567Z,99355.70
2017-12-14T04:09:25.170Z,99360.33
2017-12-14T04:11:51.932Z,99359.91
2017-12-14T04:14:18.635Z,99358.01
2017-12-14T04:16:45.165Z,99351.80
2017-12-14T04:19:11.801Z,99355.19
2017-12-14T04:21:38.326Z,99356.08
2017-12-14T04:24:04.854Z,99358.34
2017-12-14T04:26:31.565Z,99355.86
2017-12-14T04:28:58.070Z,99358.91
2017-12-14T04:31:24.609Z,99345.48
2017-12-14T04:33:51.382Z,99354.25
2017-12-14T04:36:17.925Z,99365.88
2017-12-14T04:38:44.466Z,99359.55
2017-12-14T04:41:11.054Z,99351.14
2017-12-14T04:43:37.598Z,99343.41
2017-12-14T04:46:04.148Z,99353.72
2017-12-14T04:48:30.750Z,99357.22
2017-12-14T04:50:57.289Z,99365.78
2017-12-14T04:53:23.818Z,99355.03
2017-12-14T04:55:50.370Z,99355.46
2017-12-14T04:58:16.906Z,99360.80
2017-12-14T05:00:43.546Z,99374.92
2017-12-14T05:03:10.106Z,99384.36
2017-12-14T05:05:36.805Z,99392.16
2017-12-14T05:08:03.438Z,99393.34
2017-12-14T05:10:30.050Z,99403.88
2017-12-14T05:12:56.590Z,99404.30
2017-12-14T05:15:23.146Z,99406.25
2017-12-14T05:17:49.878Z,99396.83
2017-12-14T05:20:16.462Z,99394.97
2017-12-14T05:22:43.033Z,99385.84
2017-12-14T05:25:09.805Z,99386.73
2017-12-14T05:27:36.381Z,99391.91
2017-12-14T05:30:02.938Z,99403.25
2017-12-14T05:32:29.576Z,99396.83
2017-12-14T05:34:56.077Z,99400.86
2017-12-14T05:37:22.790Z,99405.79
2017-12-14T05:39:49.457Z,99410.27
2017-12-14T05:42:15.993Z,99417.84
2017-12-14T05:44:42.502Z,99418.75
2017-12-14T05:47:09.076Z,99408.25
2017-12-14T05:49:35.793Z,99403.97
2017-12-14T05:52:02.433Z,99400.45
2017-12-14T05:54:29.018Z,99400.52
2017-12-14T05:56:55.637Z,99398.63
2017-12-14T05:59:22.495Z,99392.42
2017-12-14T06:01:50.745Z,99382.73
2017-12-14T06:04:17.701Z,99374.56
2017-12-14T06:06:44.229Z,99373.98
2017-12-14T06:09:10.891Z,99366.77
2017-12-14T06:11:37.457Z,99367.53
2017-12-14T06:14:04.065Z,99380.02
2017-12-14T06:16:30.664Z,99387.16
2017-12-14T06:18:57.323Z,99404.91
2017-12-14T06:21:23.927Z,99417.84
2017-12-14T06:23:50.614Z,99421.69
2017-12-14T06:26:17.242Z,99419.25
2017-12-14T06:28:44.131Z,99423.66
2017-12-14T06:31:10.761Z,99421.52
2017-12-14T06:33:37.362Z,99421.70
2017-12-14T06:36:04.042Z,99412.44
2017-12-14T06:38:30.705Z,99405.83
2017-12-14T06:40:57.290Z,99414.13
2017-12-14T06:43:23.905Z,99419.44
2017-12-14T06:45:50.621Z,99418.50
2017-12-14T06:48:17.189Z,99422.95
2017-12-14T06:50:43.786Z,99430.56
2017-12-14T06:53:10.382Z,99431.08
2017-12-14T06:55:36.929Z,99427.44
2017-12-14T06:58:03.732Z,99430.48
2017-12-14T07:00:30.351Z,99424.45
2017-12-14T07:03:09.030Z,99424.02
2017-12-14T07:05:35.509Z,99418.35
2017-12-14T07:08:02.140Z,99433.86
2017-12-14T07:10:28.674Z,99437.66
2017-12-14T07:12:55.497Z,99438.70
2017-12-14T07:15:22.178Z,99436.62
2017-12-14T07:17:48.749Z,99444.62
2017-12-14T07:20:15.385Z,99449.53
2017-12-14T07:22:41.966Z,99450.41
2017-12-14T07:25:08.657Z,99453.64
2017-12-14T07:27:35.394Z,99459.54
2017-12-14T07:30:02.139Z,99457.35
2017-12-14T07:32:28.767Z,99454.08
2017-12-14T07:34:55.421Z,99447.92
2017-12-14T07:37:21.961Z,99441.87
2017-12-14T07:39:48.469Z,99447.45
2017-12-14T07:42:27.009Z,99452.78
2017-12-14T07:58:20.721Z,99467.17
2017-12-14T08:00:47.274Z,99463.47
2017-12-14T08:03:13.819Z,99464.78
2017-12-14T08:05:40.550Z,99465.53
2017-12-14T08:08:07.269Z,99465.38
2017-12-14T08:10:33.874Z,99452.55
2017-12-14T08:13:00.548Z,99451.20
2017-12-14T08:15:27.231Z,99454.72
2017-12-14T08:17:53.778Z,99463.02
2017-12-14T08:20:20.418Z,99465.21
2017-12-14T08:22:47.012Z,99463.64
2017-12-14T08:25:13.598Z,99463.07
2017-12-14T08:27:40.497Z,99460.35
2017-12-14T08:30:07.156Z,99456.05
2017-12-14T08:32:33.717Z,99461.94
2017-12-14T08:35:00.661Z,99463.69
2017-12-14T08:37:27.287Z,99463.76
2017-12-14T08:39:53.901Z,99456.77
2017-12-14T08:42:20.583Z,99445.91
2017-12-14T08:44:47.153Z,99451.51
2017-12-14T08:47:13.785Z,99443.98
2017-12-14T08:49:40.341Z,99439.83
2017-12-14T08:52:06.962Z,99439.62
2017-12-14T08:54:33.558Z,99439.55
2017-12-14T08:57:00.131Z,99435.55
2017-12-14T08:59:26.742Z,99431.23
2017-12-14T09:01:53.270Z,99433.00
2017-12-14T09:04:19.890Z,99427.53
2017-12-14T09:06:46.575Z,99422.59
2017-12-14T09:09:13.343Z,99413.86
2017-12-14T09:11:39.938Z,99409.83
2017-12-14T09:14:09.438Z,99408.74
2017-12-14T09:16:36.201Z,99407.65
2017-12-14T09:19:02.889Z,99403.06
2017-12-14T09:21:29.521Z,99407.47
2017-12-14T09:23:56.161Z,99405.08
2017-12-14T09:26:22.766Z,99407.44
2017-12-14T09:28:49.317Z,99400.34
2017-12-14T09:31:15.930Z,99397.52
2017-12-14T09:33:42.858Z,99396.73
2017-12-14T09:36:09.434Z,99395.04
2017-12-14T09:38:36.019Z,99393.00
2017-12-14T09:41:02.650Z,99391.20
2017-12-14T09:43:29.158Z,99385.03
2017-12-14T09:45:55.893Z,99391.94
2017-12-14T09:48:22.510Z,99384.16
2017-12-14T09:50:49.090Z,99375.74
2017-12-14T09:53:15.607Z,99374.06
2017-12-14T09:55:42.240Z,99371.21
2017-12-14T09:58:09.006Z,99373.95
2017-12-14T10:00:35.646Z,99366.80
2017-12-14T10:03:03.912Z,99361.66
2017-12-14T10:05:30.458Z,99351.80
2017-12-14T10:07:57.371Z,99339.42
2017-12-14T10:10:23.930Z,99333.94
2017-12-14T10:12:50.478Z,99325.22
2017-12-14T10:15:17.019Z,99322.70
2017-12-14T10:17:43.798Z,99320.41
2017-12-14T10:20:10.354Z,99320.66
2017-12-14T10:22:36.933Z,99317.04
2017-12-14T10:25:03.549Z,99312.45
2017-12-14T10:27:30.105Z,99315.94
2017-12-14T10:29:56.661Z,99309.83
2017-12-14T10:32:23.302Z,99303.11
2017-12-14T10:34:49.977Z,99301.42
2017-12-14T10:37:16.923Z,99293.53
2017-12-14T10:39:43.490Z,99280.73
2017-12-14T10:42:10.052Z,99277.08
2017-12-14T10:44:36.593Z,99278.05
2017-12-14T10:47:03.300Z,99285.00
2017-12-14T10:49:29.862Z,99285.14
2017-12-14T10:51:56.562Z,99287.30
2017-12-14T10:54:25.289Z,99281.16
2017-12-14T10:56:52.055Z,99269.99
2017-12-14T10:59:18.737Z,99275.14
2017-12-14T11:01:45.371Z,99275.09
2017-12-14T11:04:12.079Z,99275.80
2017-12-14T11:06:38.686Z,99280.70
2017-12-14T11:09:05.349Z,99275.38
2017-12-14T11:11:32.065Z,99278.33
2017-12-14T11:13:58.782Z,99272.52
2017-12-14T11:16:25.442Z,99275.57
2017-12-14T11:18:52.006Z,99267.58
2017-12-14T11:21:18.609Z,99261.92
2017-12-14T11:23:45.322Z,99267.45
2017-12-14T11:26:11.926Z,99256.17
2017-12-14T11:28:38.538Z,99250.27
2017-12-14T11:31:05.160Z,99245.86
2017-12-14T11:33:32.597Z,99228.45
2017-12-14T11:35:59.210Z,99217.13
2017-12-14T11:38:25.969Z,99207.18
2017-12-14T11:40:52.524Z,99193.44
2017-12-14T11:43:19.141Z,99184.64
2017-12-14T11:45:45.774Z,99177.60
2017-12-14T11:48:12.325Z,99166.06
2017-12-14T11:50:39.038Z,99159.94
2017-12-14T11:53:05.681Z,99165.66
2017-12-14T11:55:32.390Z,99161.16
2017-12-14T11:57:58.930Z,99158.40
2017-12-14T12:00:25.793Z,99155.30
2017-12-14T12:02:52.377Z,99170.38
2017-12-14T12:05:19.014Z,99166.13
2017-12-14T12:07:45.786Z,99164.77
2017-12-14T12:10:12.421Z,99170.17
2017-12-14T12:12:39.026Z,99183.06
2017-12-14T12:15:05.679Z,99176.43
2017-12-14T12:17:32.209Z,99178.41
2017-12-14T12:19:58.758Z,99197.03
2017-12-14T12:22:25.539Z,99211.05
2017-12-14T12:24:52.264Z,99220.03
2017-12-14T12:27:18.822Z,99227.39
2017-12-14T12:29:45.533Z,99243.02
2017-12-14T12:32:12.170Z,99255.17
2017-12-14T12:34:38.746Z,99256.28
2017-12-14T12:37:05.583Z,99244.81
2017-12-14T12:39:32.187Z,99242.63
2017-12-14T12:41:58.762Z,99244.86
2017-12-14T12:44:25.342Z,99239.91
2017-12-14T12:46:51.850Z,99233.84
2017-12-14T12:49:18.467Z,99229.68
2017-12-14T12:51:45.062Z,99219.17
2017-12-14T12:54:11.609Z,99212.55
2017-12-14T12:56:38.186Z,99198.78
2017-12-14T12:59:04.769Z,99190.98
2017-12-14T13:01:31.314Z,99186.88
2017-12-14T13:03:57.855Z,99186.82
2017-12-14T13:06:24.614Z,99180.97
2017-12-14T13:08:51.258Z,99178.41
2017-12-14T13:11:17.821Z,99192.16
2017-12-14T13:13:44.734Z,99193.52
2017-12-14T13:16:11.449Z,99193.05
2017-12-14T13:18:37.985Z,99194.97
2017-12-14T13:21:04.678Z,99196.55
2017-12-14T13:23:31.319Z,99197.32
2017-12-14T13:25:57.882Z,99203.67
2017-12-14T13:28:24.778Z,99206.09
2017-12-14T13:30:51.365Z,99213.09
2017-12-14T13:33:18.002Z,99214.02
2017-12-14T13:35:44.658Z,99211.11
2017-12-14T13:38:11.192Z,99212.27
2017-12-14T13:40:37.993Z,99210.69
2017-12-14T13:43:04.676Z,99212.34
2017-12-14T13:45:31.211Z,99208.38
2017-12-14T13:47:57.805Z,99208.67
2017-12-14T13:50:24.391Z,99206.33
2017-12-14T13:52:50.974Z,99204.91
2017-12-14T13:55:17.522Z,99208.73
2017-12-14T13:57:44.322Z,99203.55
2017-12-14T14:00:10.935Z,99200.45
2017-12-14T14:02:37.534Z,99204.98
2017-12-14T14:05:04.297Z,99200.34
2017-12-14T14:07:30.780Z,99199.44
2017-12-14T14:09:57.635Z,99194.91
2017-12-14T14:12:24.254Z,99198.02
2017-12-14T14:14:50.773Z,99198.81
2017-12-14T14:17:17.243Z,99203.00
2017-12-14T14:19:43.856Z,99214.36
2017-12-14T14:22:10.366Z,99217.83
2017-12-14T14:24:36.913Z,99226.16
2017-12-14T14:27:03.651Z,99226.05
2017-12-14T14:29:30.126Z,99240.80
2017-12-14T14:31:56.699Z,99237.73
2017-12-14T14:34:23.302Z,99233.27
2017-12-14T14:36:49.869Z,99235.53
2017-12-14T14:39:16.373Z,99239.34
2017-12-14T14:41:42.926Z,99247.68
2017-12-14T14:44:09.402Z,99251.72
2017-12-14T14:46:35.892Z,99235.22
2017-12-14T14:49:02.502Z,99231.30
2017-12-14T14:51:29.010Z,99239.25
2017-12-14T14:53:55.539Z,99237.05
2017-12-14T14:56:22.033Z,99237.23
2017-12-14T14:58:48.501Z,99227.30
2017-12-14T15:01:15.005Z,99235.41
2017-12-14T15:03:43.799Z,99233.81
2017-12-14T15:06:10.804Z,99241.31
2017-12-14T15:08:37.295Z,99229.81
2017-12-14T15:11:03.814Z,99227.34
2017-12-14T15:13:30.307Z,99226.91
2017-12-14T15:15:56.757Z,99227.33
2017-12-14T15:18:23.379Z,99226.13
2017-12-14T15:20:49.839Z,99220.38
2017-12-14T15:23:16.315Z,99219.80
2017-12-14T15:25:42.834Z,99209.00
2017-12-14T15:28:09.554Z,99218.81
2017-12-14T15:30:36.018Z,99211.36
2017-12-14T15:33:02.502Z,99215.66
2017-12-14T15:35:29.138Z,99227.91
2017-12-14T15:37:55.716Z,99229.06
2017-12-14T15:40:22.333Z,99223.05
2017-12-14T15:42:49.016Z,99228.77
2017-12-14T15:45:15.498Z,99221.33
2017-12-14T15:47:42.012Z,99227.33
2017-12-14T15:50:08.478Z,99230.25
2017-12-14T15:52:35.430Z,99232.26
2017-12-14T15:55:01.954Z,99231.44
2017-12-14T15:57:28.396Z,99243.48
2017-12-14T15:59:54.875Z,99253.02
2017-12-14T16:02:21.458Z,99261.50
2017-12-14T16:04:47.911Z,99264.70
2017-12-14T16:07:14.513Z,99269.94
2017-12-14T16:09:41.077Z,99258.30
2017-12-14T16:12:07.543Z,99249.64
2017-12-14T16:14:34.085Z,99256.98
2017-12-14T16:17:00.773Z,99260.41
2017-12-14T16:19:27.238Z,99250.78
2017-12-14T16:21:53.753Z,99257.02
2017-12-14T16:24:20.278Z,99259.02
2017-12-14T16:26:46.694Z,99252.89
2017-12-14T16:29:13.166Z,99247.23
2017-12-14T16:31:39.629Z,99252.03
2017-12-14T16:34:06.226Z,99260.08
2017-12-14T16:36:32.789Z,99258.77
2017-12-14T16:39:00.325Z,99252.71
2017-12-14T16:41:27.131Z,99256.59
2017-12-14T16:43:53.659Z,99261.22
2017-12-14T16:46:20.141Z,99279.44
2017-12-14T16:48:46.886Z,99284.34
2017-12-14T16:51:13.372Z,99286.08
2017-12-14T16:53:39.937Z,99284.08
2017-12-14T16:56:06.382Z,99286.10
2017-12-14T16:58:32.855Z,99284.46
2017-12-14T17:00:59.366Z,99282.42
2017-12-14T17:03:25.974Z,99267.08
2017-12-14T17:05:52.587Z,99266.50
2017-12-14T17:08:19.097Z,99267.88
2017-12-14T17:10:45.545Z,99254.00
2017-12-14T17:13:12.150Z,99264.51
2017-12-14T17:15:39.525Z,99268.23
2017-12-14T17:18:06.126Z,99271.53
2017-12-14T17:20:32.678Z,99272.72
2017-12-14T17:22:59.193Z,99272.20
2017-12-14T17:25:25.774Z,99262.27
2017-12-14T17:27:52.694Z,99268.39
2017-12-14T17:30:19.230Z,99282.70
2017-12-14T17:32:45.724Z,99288.88
2017-12-14T17:35:12.202Z,99287.53
2017-12-14T17:37:38.653Z,99277.91
2017-12-14T17:40:05.065Z,99283.09
2017-12-14T17:42:31.546Z,99270.66
2017-12-14T17:44:58.023Z,99267.67
2017-12-14T17:47:24.535Z,99269.19
2017-12-14T17:49:51.113Z,99280.92
2017-12-14T17:52:17.689Z,99291.87
2017-12-14T17:54:44.273Z,99282.07
2017-12-14T17:57:10.733Z,99279.83
2017-12-14T17:59:40.431Z,99272.62
2017-12-14T18:02:08.627Z,99285.34
2017-12-14T18:04:35.130Z,99286.58
2017-12-14T18:07:01.698Z,99298.66
2017-12-14T18:09:28.186Z,99295.92
2017-12-14T18:11:55.045Z,99307.49
2017-12-14T18:14:21.527Z,99304.58
2017-12-14T18:16:48.042Z,99310.27
2017-12-14T18:19:14.862Z,99305.23
2017-12-14T18:21:41.406Z,99306.61
2017-12-14T18:24:07.839Z,99315.08
2017-12-14T18:26:34.308Z,99320.94
2017-12-14T18:29:01.398Z,99316.94
2017-12-14T18:31:27.974Z,99317.77
2017-12-14T18:33:54.552Z,99318.70
2017-12-14T18:36:21.222Z,99323.26
2017-12-14T18:38:47.790Z,99317.64
2017-12-14T18:41:14.309Z,99314.73
2017-12-14T18:43:40.813Z,99307.73
2017-12-14T18:46:07.262Z,99303.71
2017-12-14T18:48:33.825Z,99301.59
2017-12-14T18:51:00.394Z,99304.35
2017-12-14T18:53:26.901Z,99306.48
2017-12-14T18:55:53.367Z,99305.11
2017-12-14T18:58:19.850Z,99298.00
2017-12-14T19:00:46.370Z,99309.54
2017-12-14T19:03:12.959Z,99313.48
2017-12-14T19:05:39.598Z,99316.06
2017-12-14T19:08:06.150Z,99315.08
2017-12-14T19:10:32.700Z,99317.38
2017-12-14T19:12:59.290Z,99317.95
2017-12-14T19:15:25.898Z,99318.73
2017-12-14T19:17:52.437Z,99313.82
2017-12-14T19:20:19.078Z,99315.86
2017-12-14T19:22:45.653Z,99318.00
2017-12-14T19:25:12.363Z,99321.56
2017-12-14T19:27:39.086Z,99319.72
2017-12-14T19:30:05.737Z,99318.36
2017-12-14T19:32:32.421Z,99314.55
2017-12-14T19:34:59.095Z,99311.50
2017-12-14T19:37:25.593Z,99306.13
2017-12-14T19:39:52.333Z,99308.52
2017-12-14T19:42:18.933Z,99302.13
2017-12-14T19:44:45.447Z,99307.57
2017-12-14T19:47:11.978Z,99309.87
2017-12-14T19:49:38.555Z,99313.44
2017-12-14T19:52:05.062Z,99302.75
2017-12-14T19:54:31.598Z,99307.34
2017-12-14T19:56:58.120Z,99306.55
2017-12-14T19:59:24.580Z,99311.00
2017-12-14T20:01:51.074Z,99314.71
2017-12-14T20:04:17.638Z,99311.06
2017-12-14T20:06:44.202Z,99323.30
2017-12-14T20:09:10.700Z,99328.13
2017-12-14T20:11:37.222Z,99326.93
2017-12-14T20:14:03.723Z,99321.65
2017-12-14T20:16:30.242Z,99321.98
2017-12-14T20:18:56.814Z,99327.23
2017-12-14T20:21:23.372Z,99329.61
2017-12-14T20:23:49.853Z,99335.63
2017-12-14T20:26:16.687Z,99343.20
2017-12-14T20:28:43.355Z,99336.48
2017-12-14T20:31:09.870Z,99348.77
2017-12-14T20:33:36.429Z,99352.55
2017-12-14T20:36:03.090Z,99354.25
2017-12-14T20:38:29.642Z,99360.39
2017-12-14T20:40:56.297Z,99349.91
2017-12-14T20:43:22.807Z,99351.31
2017-12-14T20:45:49.426Z,99365.44
2017-12-14T20:48:16.126Z,99376.94
2017-12-14T20:50:42.679Z,99362.47
2017-12-14T20:53:09.193Z,99353.67
2017-12-14T20:55:35.792Z,99345.89
2017-12-14T20:58:02.268Z,99357.81
2017-12-14T21:00:28.730Z,99366.11
2017-12-14T21:02:55.241Z,99367.97
2017-12-14T21:05:21.677Z,99371.34
2017-12-14T21:07:48.167Z,99381.10
2017-12-14T21:10:14.681Z,99372.36
2017-12-14T21:12:41.265Z,99368.86
2017-12-14T21:15:07.891Z,99372.17
2017-12-14T21:17:34.492Z,99370.98
2017-12-14T21:20:00.947Z,99365.87
2017-12-14T21:22:27.579Z,99371.00
2017-12-14T21:24:54.101Z,99375.19
2017-12-14T21:27:20.522Z,99371.38
2017-12-14T21:29:47.021Z,99363.38
2017-12-14T21:32:13.627Z,99357.17
2017-12-14T21:34:40.125Z,99364.02
2017-12-14T21:37:06.585Z,99355.02
2017-12-14T21:39:33.082Z,99356.05
2017-12-14T21:41:59.532Z,99353.05
2017-12-14T21:44:26.037Z,99351.38
2017-12-14T21:46:53.560Z,99353.50
2017-12-14T21:49:20.318Z,99347.88
2017-12-14T21:51:47.138Z,99352.38
2017-12-14T21:54:13.698Z,99360.43
2017-12-14T21:56:40.191Z,99364.36
2017-12-14T21:59:06.781Z,99371.09
2017-12-14T22:01:33.370Z,99368.73
2017-12-14T22:03:59.877Z,99368.09
2017-12-14T22:06:26.576Z,99363.51
2017-12-14T22:08:53.392Z,99364.67
2017-12-14T22:11:20.251Z,99358.52
2017-12-14T22:13:46.877Z,99355.61
2017-12-14T22:16:13.454Z,99356.16
2017-12-14T22:18:40.025Z,99356.12
2017-12-14T22:21:06.502Z,99362.89
2017-12-14T22:23:33.246Z,99361.59
2017-12-14T22:25:59.741Z,99359.20
2017-12-14T22:28:26.148Z,99361.64
2017-12-14T22:30:52.706Z,99359.67
2017-12-14T22:33:19.227Z,99372.16
2017-12-14T22:35:46.025Z,99372.65
2017-12-14T22:38:12.517Z,99375.25
2017-12-14T22:40:39.013Z,99373.99
2017-12-14T22:43:05.575Z,99373.12
2017-12-14T22:45:32.110Z,99378.81
2017-12-14T22:47:58.598Z,99377.02
2017-12-14T22:50:25.097Z,99382.09
2017-12-14T22:52:51.620Z,99385.37
2017-12-14T22:55:18.125Z,99395.29
2017-12-14T22:57:44.737Z,99393.45
2017-12-14T23:00:11.222Z,99378.92
2017-12-14T23:02:37.765Z,99377.94
2017-12-14T23:05:04.221Z,99371.76
2017-12-14T23:07:30.771Z,99368.73
2017-12-14T23:09:57.273Z,99365.98
2017-12-14T23:12:23.697Z,99378.30
2017-12-14T23:14:50.081Z,99377.37
2017-12-14T23:17:16.593Z,99379.34
2017-12-14T23:19:43.038Z,99378.39
2017-12-14T23:22:09.489Z,99379.92
2017-12-14T23:24:35.872Z,99369.61
2017-12-14T23:27:02.952Z,99369.19
2017-12-14T23:29:29.389Z,99370.22
2017-12-14T23:31:55.765Z,99369.73
2017-12-14T23:34:22.185Z,99376.66
2017-12-14T23:36:48.617Z,99372.61
2017-12-14T23:39:15.361Z,99373.48
2017-12-14T23:41:41.813Z,99376.94
2017-12-14T23:44:08.221Z,99376.94
2017-12-14T23:46:34.592Z,99380.20
2017-12-14T23:49:01.017Z,99378.97
2017-12-14T23:51:27.453Z,99378.25
2017-12-14T23:53:53.858Z,99384.80
2017-12-14T23:56:20.257Z,99383.59
2017-12-14T23:58:46.676Z,99384.75
